Pollock, SD

11:03 PM CDT on August 21, 2014 (GMT -0500)
Mandan | Change Station
CLOSE
Current Station
Airport
Location: Mandan,
Elevation: 1942 ft
Nearby Weather Stations

Elev 1942 ft 46.77 °N, 100.89 °W | Updated 8 minutes ago

Partly Cloudy
Partly Cloudy
66 °F
Feels Like 66 °F
N
5
Wind Variable Wind from NNE

Today
High -- | Low -- °F
--% Chance of Precip.
Yesterday
High -- | Low -- °F
Precip. -- in
6:48 AM 8:39 PM
Waning Crescent, 10% visible
Pressure 29.97 in
Visibility 10.0 miles
Clouds Few 3700 ft
Few 12000 ft
Dew Point 61 °F
Humidity 83%
Rainfall 0.00 in
Snow Depth Not available.
UV 0 out of 12
Pollen 8.40 out of 12
Air Quality Not available.
Flu Activity Not available.
METAR KY19 220355Z AUTO 02004KT 10SM FEW037 FEW120 19/16 A2997 RMK AO2

More Conditions Fewer Conditions

Pressure 29.97 in
Visibility 10.0 miles
Clouds Few 3700 ft
Few 12000 ft
Dew Point 61 °F
Humidity 83%
Rainfall 0.00 in
Snow Depth Not available.
UV 0 out of 12
Pollen 8.40 out of 12
Air Quality Not available.
Flu Activity Not available.
METAR KY19 220355Z AUTO 02004KT 10SM FEW037 FEW120 19/16 A2997 RMK AO2

More Conditions Fewer Conditions

10-Day Weather Forecast

Almanac

Astronomy

Aug. 21, 2014 Rise Set
Actual Time 6:48 AM CDT 8:39 PM CDT
Civil Twilight 6:16 AM CDT 9:11 PM CDT
Nautical Twilight 5:37 AM CDT 9:49 PM CDT
Astronomical Twilight 4:54 AM CDT 10:32 PM CDT
Moon 3:15 AM CDT (8/21) 6:13 PM CDT (8/21)
Length of Visible Light 14h 54m
Length of Day
13h 50m
Tomorrow will be 2m 59s shorter.
Waning Crescent, 10% of the Moon is Illuminated
Aug 22
Waning Crescent
Aug 25
New
Sep 2
First Quarter
Sep 8
Full
Sep 15
Last Quarter

Today's Extremes

State Highs State Lows

Community

WunderPhotos

Upload Photos

1,746,125 photos uploaded!

Nearby

Snow Depth

Station Depth Elevation
Blind Park 0 in 6890 ft

Earthquake Activity

City Distance Mag. Time & Date
No recent earthquake activity has been reported nearby.
Minimum magnitude displayed is 2.5.

Coastal Water Temperatures

Place Temperature
No Stations Reporting

Nearby Weather Stations